createdAt,value
2022-10-22T00:00:12.062Z,7.82
2022-10-22T00:02:39.264Z,18.30
2022-10-22T00:05:06.567Z,19.60
2022-10-22T00:07:33.719Z,19.90
2022-10-22T00:10:00.941Z,23.30
2022-10-22T00:12:28.153Z,15.48
2022-10-22T00:14:55.371Z,12.25
2022-10-22T00:17:22.537Z,14.35
2022-10-22T00:19:49.760Z,14.60
2022-10-22T00:22:16.904Z,22.65
2022-10-22T00:24:44.106Z,22.00
2022-10-22T00:27:11.328Z,24.42
2022-10-22T00:29:38.532Z,19.20
2022-10-22T00:32:05.685Z,21.15
2022-10-22T00:34:32.891Z,10.35
2022-10-22T00:37:00.061Z,11.70
2022-10-22T00:39:27.241Z,12.02
2022-10-22T00:41:54.463Z,10.27
2022-10-22T00:44:22.230Z,12.05
2022-10-22T00:46:49.394Z,12.98
2022-10-22T00:49:16.629Z,11.02
2022-10-22T00:51:43.819Z,16.02
2022-10-22T00:54:11.029Z,14.50
2022-10-22T00:56:38.179Z,11.73
2022-10-22T00:59:05.432Z,19.42
2022-10-22T01:01:32.718Z,16.92
2022-10-22T01:03:59.938Z,20.02
2022-10-22T01:06:27.219Z,18.52
2022-10-22T01:08:54.493Z,14.82
2022-10-22T01:11:22.266Z,21.90
2022-10-22T01:13:49.511Z,21.48
2022-10-22T01:16:16.704Z,24.40
2022-10-22T01:18:43.907Z,19.80
2022-10-22T01:21:11.075Z,17.88
2022-10-22T01:23:38.300Z,16.33
2022-10-22T01:26:05.753Z,11.73
2022-10-22T01:28:32.973Z,21.80
2022-10-22T01:31:00.168Z,22.90
2022-10-22T01:33:27.345Z,21.85
2022-10-22T01:35:54.613Z,17.10
2022-10-22T01:38:21.849Z,19.75
2022-10-22T01:40:49.073Z,16.52
2022-10-22T01:43:16.753Z,21.33
2022-10-22T01:45:44.047Z,21.15
2022-10-22T01:48:11.219Z,22.55
2022-10-22T01:50:38.624Z,18.88
2022-10-22T01:53:05.790Z,29.05
2022-10-22T01:55:33.006Z,18.70
2022-10-22T01:58:00.138Z,23.88
2022-10-22T02:00:27.392Z,20.17
2022-10-22T02:02:54.584Z,9.82
2022-10-22T02:05:22.058Z,25.35
2022-10-22T02:07:49.233Z,17.35
2022-10-22T02:10:16.453Z,11.15
2022-10-22T02:12:43.890Z,14.45
2022-10-22T02:15:11.223Z,26.92
2022-10-22T02:17:38.385Z,13.68
2022-10-22T02:20:05.945Z,14.60
2022-10-22T02:22:33.183Z,22.23
2022-10-22T02:25:00.421Z,25.63
2022-10-22T02:27:27.623Z,24.63
2022-10-22T02:29:54.915Z,21.90
2022-10-22T02:32:22.069Z,17.10
2022-10-22T02:34:49.261Z,13.48
2022-10-22T02:37:16.426Z,20.80
2022-10-22T02:39:43.638Z,20.70
2022-10-22T02:42:12.178Z,16.08
2022-10-22T02:44:39.446Z,14.55
2022-10-22T02:47:06.600Z,22.35
2022-10-22T02:49:33.797Z,17.30
2022-10-22T02:52:00.966Z,18.40
2022-10-22T02:54:28.176Z,16.50
2022-10-22T02:56:55.341Z,13.60
2022-10-22T02:59:22.537Z,14.18
2022-10-22T03:01:49.683Z,10.13
2022-10-22T03:04:16.884Z,10.57
2022-10-22T03:06:44.757Z,16.02
2022-10-22T03:09:12.037Z,19.70
2022-10-22T03:11:39.230Z,13.68
2022-10-22T03:14:06.470Z,23.98
2022-10-22T03:16:33.610Z,15.10
2022-10-22T03:19:02.015Z,13.93
2022-10-22T03:21:29.271Z,8.50
2022-10-22T03:23:56.468Z,26.98
2022-10-22T03:26:23.626Z,13.00
2022-10-22T03:28:50.909Z,17.65
2022-10-22T03:31:18.082Z,11.25
2022-10-22T03:33:45.326Z,12.98
2022-10-22T03:36:12.536Z,12.35
2022-10-22T03:38:39.801Z,13.95
2022-10-22T03:41:06.960Z,15.45
2022-10-22T03:43:34.201Z,16.92
2022-10-22T03:46:01.345Z,11.95
2022-10-22T03:48:28.525Z,9.00
2022-10-22T03:50:55.699Z,17.80
2022-10-22T03:53:22.932Z,9.80
2022-10-22T03:55:50.123Z,14.48
2022-10-22T03:58:17.353Z,12.88
2022-10-22T04:00:44.541Z,14.20
2022-10-22T04:03:11.762Z,10.52
2022-10-22T04:05:38.933Z,14.57
2022-10-22T04:08:06.176Z,10.45
2022-10-22T04:10:33.313Z,8.02
2022-10-22T04:13:00.549Z,13.25
2022-10-22T04:15:29.079Z,16.75
2022-10-22T04:17:56.399Z,17.60
2022-10-22T04:20:23.593Z,27.67
2022-10-22T04:22:50.815Z,8.75
2022-10-22T04:25:18.041Z,12.95
2022-10-22T04:27:45.342Z,12.65
2022-10-22T04:30:12.761Z,13.48
2022-10-22T04:32:39.980Z,18.42
2022-10-22T04:35:07.211Z,16.65
2022-10-22T04:37:34.525Z,10.70
2022-10-22T04:40:01.679Z,12.75
2022-10-22T04:42:28.908Z,16.30
2022-10-22T04:44:56.065Z,17.30
2022-10-22T04:47:23.301Z,14.95
2022-10-22T04:49:50.486Z,19.45
2022-10-22T04:52:17.683Z,14.35
2022-10-22T04:54:44.854Z,26.35
2022-10-22T04:57:12.100Z,24.92
2022-10-22T04:59:39.246Z,24.58
2022-10-22T05:02:06.561Z,17.83
2022-10-22T05:04:33.774Z,23.50
2022-10-22T05:07:01.012Z,21.40
2022-10-22T05:09:28.230Z,15.88
2022-10-22T05:11:55.472Z,18.02
2022-10-22T05:14:22.708Z,12.15
2022-10-22T05:16:49.950Z,21.52
2022-10-22T05:19:17.399Z,21.95
2022-10-22T05:21:44.644Z,21.88
2022-10-22T05:24:11.866Z,26.30
2022-10-22T05:26:39.129Z,16.48
2022-10-22T05:29:06.287Z,23.33
2022-10-22T05:31:33.529Z,22.58
2022-10-22T05:34:00.770Z,18.42
2022-10-22T05:36:27.932Z,31.90
2022-10-22T05:38:55.205Z,18.42
2022-10-22T05:41:22.444Z,19.85
2022-10-22T05:43:49.692Z,36.90
2022-10-22T05:46:21.397Z,18.00
2022-10-22T05:48:50.144Z,31.88
2022-10-22T05:51:17.325Z,29.88
2022-10-22T05:53:44.638Z,34.40
2022-10-22T05:56:11.787Z,20.60
2022-10-22T05:58:39.121Z,25.33
2022-10-22T06:01:06.363Z,33.63
2022-10-22T06:03:33.574Z,25.38
2022-10-22T06:06:00.787Z,28.10
2022-10-22T06:08:27.999Z,36.22
2022-10-22T06:10:55.202Z,22.98
2022-10-22T06:13:22.977Z,33.00
2022-10-22T06:15:50.145Z,16.42
2022-10-22T06:18:17.389Z,19.67
2022-10-22T06:20:45.501Z,25.92
2022-10-22T06:23:12.727Z,23.85
2022-10-22T06:25:39.888Z,29.55
2022-10-22T06:28:07.142Z,27.65
2022-10-22T06:30:34.357Z,35.08
2022-10-22T06:33:01.572Z,45.80
2022-10-22T06:35:28.793Z,29.20
2022-10-22T06:37:56.001Z,36.63
2022-10-22T06:40:24.387Z,32.40
2022-10-22T06:42:51.652Z,54.92
2022-10-22T06:45:18.808Z,32.05
2022-10-22T06:47:47.317Z,47.10
2022-10-22T06:50:14.504Z,32.58
2022-10-22T06:52:41.761Z,23.27
2022-10-22T06:55:08.924Z,42.30
2022-10-22T06:57:36.182Z,36.30
2022-10-22T07:00:03.500Z,31.33
2022-10-22T07:02:30.764Z,35.53
2022-10-22T07:04:58.092Z,38.88
2022-10-22T07:07:25.312Z,37.47
2022-10-22T07:09:52.744Z,47.28
2022-10-22T07:12:19.989Z,42.78
2022-10-22T07:14:47.305Z,46.92
2022-10-22T07:17:14.474Z,34.35
2022-10-22T07:19:41.778Z,45.63
2022-10-22T07:22:09.001Z,40.35
2022-10-22T07:24:36.231Z,41.67
2022-10-22T07:27:04.380Z,31.10
2022-10-22T07:29:33.294Z,40.20
2022-10-22T07:32:00.447Z,47.60
2022-10-22T07:34:27.674Z,32.20
2022-10-22T07:36:54.961Z,27.45
2022-10-22T07:39:22.296Z,39.90
2022-10-22T07:41:49.530Z,34.55
2022-10-22T07:44:16.718Z,29.95
2022-10-22T07:46:48.062Z,44.10
2022-10-22T07:49:16.324Z,25.75
2022-10-22T07:51:43.529Z,31.20
2022-10-22T07:54:10.775Z,31.92
2022-10-22T07:56:37.963Z,31.98
2022-10-22T07:59:05.279Z,40.78
2022-10-22T08:01:32.487Z,32.45
2022-10-22T08:03:59.728Z,33.70
2022-10-22T08:06:26.952Z,27.88
2022-10-22T08:08:54.234Z,33.95
2022-10-22T08:11:21.466Z,34.40
2022-10-22T08:13:48.692Z,46.38
2022-10-22T08:16:15.994Z,31.80
2022-10-22T08:18:43.389Z,31.35
2022-10-22T08:21:10.585Z,31.63
2022-10-22T08:23:37.809Z,23.80
2022-10-22T08:26:05.135Z,19.65
2022-10-22T08:28:36.934Z,45.90
2022-10-22T08:31:04.157Z,28.20
2022-10-22T08:33:31.365Z,24.58
2022-10-22T08:35:58.574Z,28.48
2022-10-22T08:38:25.752Z,25.55
2022-10-22T08:40:53.057Z,32.58
2022-10-22T08:43:20.229Z,30.63
2022-10-22T08:45:47.486Z,37.55
2022-10-22T08:48:14.667Z,39.35
2022-10-22T08:50:41.948Z,29.67
2022-10-22T08:53:09.119Z,32.47
2022-10-22T08:55:37.565Z,28.88
2022-10-22T08:58:04.897Z,24.13
2022-10-22T09:00:32.134Z,28.45
2022-10-22T09:02:59.317Z,31.25
2022-10-22T09:05:26.515Z,23.10
2022-10-22T09:07:53.680Z,34.05
2022-10-22T09:10:21.082Z,33.72
2022-10-22T09:12:48.248Z,24.23
2022-10-22T09:15:15.588Z,28.48
2022-10-22T09:17:43.833Z,26.63
2022-10-22T09:20:11.470Z,24.80
2022-10-22T09:22:38.910Z,24.17
2022-10-22T09:25:06.138Z,24.50
2022-10-22T09:27:33.276Z,28.30
2022-10-22T09:30:00.772Z,32.55
2022-10-22T09:32:27.970Z,26.08
2022-10-22T09:34:55.211Z,35.70
2022-10-22T09:37:22.769Z,23.80
2022-10-22T09:39:50.026Z,27.05
2022-10-22T09:42:17.235Z,29.65
2022-10-22T09:44:47.752Z,28.35
2022-10-22T09:47:15.730Z,22.83
2022-10-22T09:49:42.927Z,24.27
2022-10-22T09:52:12.756Z,24.52
2022-10-22T09:54:39.997Z,27.77
2022-10-22T09:57:07.204Z,28.00
2022-10-22T09:59:34.391Z,23.65
2022-10-22T10:02:13.446Z,27.52
2022-10-22T10:04:47.778Z,21.48
2022-10-22T10:07:14.988Z,26.33
2022-10-22T10:09:42.204Z,35.55
2022-10-22T10:12:09.397Z,46.17
2022-10-22T10:14:36.687Z,28.13
2022-10-22T10:17:03.926Z,27.80
2022-10-22T10:19:31.445Z,21.48
2022-10-22T10:21:58.674Z,24.80
2022-10-22T10:24:25.915Z,23.70
2022-10-22T10:26:53.170Z,15.65
2022-10-22T10:29:20.533Z,16.98
2022-10-22T10:31:47.729Z,19.85
2022-10-22T10:34:14.964Z,27.30
2022-10-22T10:36:42.316Z,26.25
2022-10-22T10:39:09.541Z,29.67
2022-10-22T10:41:36.717Z,31.10
2022-10-22T10:44:04.031Z,17.65
2022-10-22T10:46:33.510Z,23.75
2022-10-22T10:49:03.588Z,18.75
2022-10-22T10:51:30.850Z,17.13
2022-10-22T10:53:58.188Z,27.33
2022-10-22T10:56:25.390Z,24.25
2022-10-22T10:58:52.726Z,22.55
2022-10-22T11:01:20.006Z,19.65
2022-10-22T11:03:47.307Z,26.02
2022-10-22T11:06:15.277Z,27.08
2022-10-22T11:08:43.583Z,25.13
2022-10-22T11:11:10.876Z,23.75
2022-10-22T11:13:38.246Z,21.02
2022-10-22T11:16:05.407Z,19.85
2022-10-22T11:18:32.664Z,21.98
2022-10-22T11:20:59.883Z,19.08
2022-10-22T11:23:27.270Z,16.25
2022-10-22T11:25:54.512Z,20.02
2022-10-22T11:28:21.794Z,24.58
2022-10-22T11:30:49.161Z,26.00
2022-10-22T11:33:16.335Z,24.15
2022-10-22T11:35:43.677Z,22.63
2022-10-22T11:38:10.854Z,15.25
2022-10-22T11:40:38.160Z,21.00
2022-10-22T11:43:05.469Z,23.80
2022-10-22T11:45:32.753Z,16.55
2022-10-22T11:47:59.990Z,24.13
2022-10-22T11:50:27.282Z,16.80
2022-10-22T11:52:55.041Z,12.27
2022-10-22T11:55:22.307Z,16.95
2022-10-22T11:57:49.590Z,16.20
2022-10-22T12:00:16.774Z,12.48
2022-10-22T12:02:44.239Z,19.30
2022-10-22T12:05:11.654Z,21.15
2022-10-22T12:07:38.877Z,15.98
2022-10-22T12:10:06.154Z,19.80
2022-10-22T12:12:33.409Z,14.48
2022-10-22T12:15:00.812Z,15.40
2022-10-22T12:17:27.982Z,21.52
2022-10-22T12:19:57.471Z,10.23
2022-10-22T12:22:27.083Z,22.02
2022-10-22T12:24:54.600Z,18.08
2022-10-22T12:27:22.779Z,15.18
2022-10-22T12:29:50.531Z,13.40
2022-10-22T12:32:18.089Z,12.80
2022-10-22T12:34:45.385Z,17.45
2022-10-22T12:37:12.837Z,15.48
2022-10-22T12:39:40.027Z,15.25
2022-10-22T12:42:07.386Z,20.90
2022-10-22T12:44:34.664Z,19.33
2022-10-22T12:47:01.956Z,12.38
2022-10-22T12:49:29.181Z,9.80
2022-10-22T12:51:56.475Z,22.02
2022-10-22T12:54:23.784Z,15.50
2022-10-22T12:56:51.346Z,14.43
2022-10-22T12:59:18.571Z,18.58
2022-10-22T13:01:46.042Z,11.65
2022-10-22T13:04:13.209Z,11.88
2022-10-22T13:06:40.462Z,16.17
2022-10-22T13:09:07.887Z,13.35
2022-10-22T13:11:35.164Z,21.75
2022-10-22T13:14:02.343Z,19.95
2022-10-22T13:16:30.812Z,11.18
2022-10-22T13:18:58.038Z,13.73
2022-10-22T13:21:26.521Z,15.90
2022-10-22T13:23:53.768Z,18.95
2022-10-22T13:26:20.922Z,14.82
2022-10-22T13:28:48.226Z,15.95
2022-10-22T13:31:15.442Z,19.77
2022-10-22T13:33:42.792Z,19.92
2022-10-22T13:36:09.965Z,11.73
2022-10-22T13:38:37.250Z,15.80
2022-10-22T13:41:04.938Z,21.42
2022-10-22T13:43:32.231Z,13.50
2022-10-22T13:45:59.442Z,19.05
2022-10-22T13:48:26.731Z,9.60
2022-10-22T13:50:54.130Z,13.77
2022-10-22T13:53:21.392Z,10.20
2022-10-22T13:55:50.215Z,12.15
2022-10-22T14:00:44.892Z,13.63
2022-10-22T14:03:12.273Z,17.13
2022-10-22T14:05:39.576Z,15.82
2022-10-22T14:08:06.780Z,11.93
2022-10-22T14:10:34.039Z,18.83
2022-10-22T14:13:01.235Z,11.60
2022-10-22T14:15:28.460Z,17.02
2022-10-22T14:17:55.678Z,12.90
2022-10-22T14:20:23.026Z,12.90
2022-10-22T14:22:50.266Z,20.50
2022-10-22T14:25:17.582Z,17.73
2022-10-22T14:27:44.780Z,16.25
2022-10-22T14:30:12.145Z,9.52
2022-10-22T14:32:39.723Z,12.48
2022-10-22T14:35:07.152Z,13.85
2022-10-22T14:37:34.315Z,16.63
2022-10-22T14:40:02.636Z,13.75
2022-10-22T14:42:30.078Z,14.95
2022-10-22T14:44:57.289Z,10.70
2022-10-22T14:47:24.546Z,9.70
2022-10-22T14:49:51.814Z,14.07
2022-10-22T14:52:20.195Z,15.93
2022-10-22T14:54:48.945Z,11.57
2022-10-22T14:57:16.604Z,22.00
2022-10-22T14:59:43.962Z,15.85
2022-10-22T15:02:11.153Z,11.65
2022-10-22T15:04:38.429Z,14.63
2022-10-22T15:07:05.664Z,13.68
2022-10-22T15:09:32.986Z,11.73
2022-10-22T15:12:00.170Z,14.88
2022-10-22T15:14:27.602Z,13.13
2022-10-22T15:16:54.819Z,17.15
2022-10-22T15:19:22.062Z,17.55
2022-10-22T15:21:49.242Z,24.67
2022-10-22T15:24:16.514Z,18.23
2022-10-22T15:26:43.751Z,24.63
2022-10-22T15:29:11.072Z,15.73
2022-10-22T15:31:38.357Z,10.15
2022-10-22T15:34:05.573Z,13.25
2022-10-22T15:36:32.735Z,15.90
2022-10-22T15:39:00.056Z,17.02
2022-10-22T15:41:27.265Z,19.08
2022-10-22T15:43:54.557Z,12.52
2022-10-22T15:46:21.980Z,18.08
2022-10-22T15:48:49.233Z,19.90
2022-10-22T15:51:16.420Z,15.93
2022-10-22T15:53:43.739Z,14.35
2022-10-22T15:56:12.035Z,12.07
2022-10-22T15:58:39.281Z,16.73
2022-10-22T16:01:06.601Z,13.73
2022-10-22T16:03:33.822Z,17.70
2022-10-22T16:06:00.948Z,13.95
2022-10-22T16:08:28.219Z,14.20
2022-10-22T16:10:55.440Z,13.40
2022-10-22T16:13:24.206Z,17.23
2022-10-22T16:15:51.428Z,18.80
2022-10-22T16:18:18.664Z,18.17
2022-10-22T16:20:45.884Z,20.83
2022-10-22T16:23:13.942Z,14.30
2022-10-22T16:25:41.167Z,13.05
2022-10-22T16:28:08.428Z,19.33
2022-10-22T16:30:35.649Z,15.35
2022-10-22T16:33:03.514Z,17.02
2022-10-22T16:35:31.131Z,17.13
2022-10-22T16:37:58.425Z,21.35
2022-10-22T16:40:25.597Z,16.83
2022-10-22T16:42:52.865Z,20.23
2022-10-22T16:45:20.205Z,23.50
2022-10-22T16:47:49.037Z,17.88
2022-10-22T16:50:16.208Z,30.58
2022-10-22T16:52:43.565Z,16.38
2022-10-22T16:55:10.762Z,18.50
2022-10-22T16:57:37.990Z,22.75
2022-10-22T17:00:05.213Z,12.80
2022-10-22T17:02:32.471Z,17.83
2022-10-22T17:04:59.630Z,30.33
2022-10-22T17:07:26.866Z,13.10
2022-10-22T17:09:54.075Z,23.90
2022-10-22T17:12:21.388Z,18.48
2022-10-22T17:14:48.667Z,22.25
2022-10-22T17:17:15.903Z,13.60
2022-10-22T17:19:43.071Z,17.27
2022-10-22T17:22:13.664Z,21.23
2022-10-22T17:24:43.972Z,16.25
2022-10-22T17:27:11.238Z,23.80
2022-10-22T17:29:38.551Z,18.55
2022-10-22T17:32:05.737Z,22.10
2022-10-22T17:34:33.306Z,22.10
2022-10-22T17:37:00.466Z,13.98
2022-10-22T17:39:27.732Z,19.05
2022-10-22T17:41:54.881Z,18.60
2022-10-22T17:44:22.203Z,23.35
2022-10-22T17:46:49.764Z,14.73
2022-10-22T17:49:17.329Z,41.17
2022-10-22T17:51:44.519Z,23.88
2022-10-22T17:54:11.750Z,23.77
2022-10-22T17:56:40.391Z,24.42
2022-10-22T17:59:07.684Z,30.13
2022-10-22T18:01:35.073Z,18.67
2022-10-22T18:04:02.409Z,28.63
2022-10-22T18:06:29.611Z,26.17
2022-10-22T18:08:56.842Z,21.27
2022-10-22T18:11:24.046Z,23.02
2022-10-22T18:13:51.330Z,24.75
2022-10-22T18:16:18.527Z,17.75
2022-10-22T18:18:46.125Z,23.02
2022-10-22T18:21:13.304Z,26.20
2022-10-22T18:23:40.567Z,29.55
2022-10-22T18:26:07.799Z,25.88
2022-10-22T18:28:35.012Z,25.40
2022-10-22T18:31:02.202Z,23.30
2022-10-22T18:33:29.404Z,29.35
2022-10-22T18:35:56.947Z,27.20
2022-10-22T18:38:24.617Z,21.45
2022-10-22T18:40:51.864Z,24.33
2022-10-22T18:43:19.081Z,21.17
2022-10-22T18:45:46.273Z,30.63
2022-10-22T18:48:13.491Z,26.25
2022-10-22T18:50:40.680Z,26.23
2022-10-22T18:53:07.901Z,23.80
2022-10-22T18:55:35.145Z,33.38
2022-10-22T18:58:02.313Z,34.35
2022-10-22T19:00:29.553Z,35.10
2022-10-22T19:02:56.748Z,27.45
2022-10-22T19:05:23.969Z,19.75
2022-10-22T19:07:51.137Z,26.02
2022-10-22T19:10:18.449Z,29.77
2022-10-22T19:12:45.666Z,17.30
2022-10-22T19:15:12.970Z,22.55
2022-10-22T19:17:40.472Z,24.10
2022-10-22T19:20:07.927Z,25.23
2022-10-22T19:22:35.273Z,17.20
2022-10-22T19:25:02.564Z,26.77
2022-10-22T19:27:31.718Z,22.33
2022-10-22T19:29:58.940Z,20.25
2022-10-22T19:32:28.778Z,16.58
2022-10-22T19:34:58.192Z,27.58
2022-10-22T19:37:25.363Z,22.45
2022-10-22T19:39:52.578Z,21.08
2022-10-22T19:42:20.882Z,21.75
2022-10-22T19:44:48.091Z,20.50
2022-10-22T19:47:16.110Z,14.82
2022-10-22T19:49:43.382Z,21.05
2022-10-22T19:52:10.594Z,30.08
2022-10-22T19:54:40.920Z,31.33
2022-10-22T19:57:08.164Z,15.13
2022-10-22T19:59:35.435Z,12.25
2022-10-22T20:02:02.770Z,17.60
2022-10-22T20:04:30.104Z,21.90
2022-10-22T20:06:57.418Z,28.95
2022-10-22T20:09:24.647Z,14.50
2022-10-22T20:11:51.980Z,18.55
2022-10-22T20:14:19.207Z,20.77
2022-10-22T20:16:46.518Z,28.65
2022-10-22T20:19:16.043Z,25.00
2022-10-22T20:21:43.477Z,24.17
2022-10-22T20:24:10.774Z,19.90
2022-10-22T20:26:37.958Z,26.75
2022-10-22T20:29:05.124Z,29.90
2022-10-22T20:31:33.238Z,22.73
2022-10-22T20:34:01.155Z,27.83
2022-10-22T20:36:28.394Z,29.95
2022-10-22T20:38:55.662Z,24.83
2022-10-22T20:41:22.961Z,27.95
2022-10-22T20:43:50.140Z,21.95
2022-10-22T20:46:17.794Z,15.05
2022-10-22T20:48:45.019Z,19.20
2022-10-22T20:51:12.254Z,21.65
2022-10-22T20:53:39.537Z,13.98
2022-10-22T20:56:06.789Z,15.45
2022-10-22T20:58:33.952Z,15.80
2022-10-22T21:01:09.529Z,18.13
2022-10-22T21:03:36.866Z,18.13
2022-10-22T21:06:04.111Z,15.02
2022-10-22T21:08:31.449Z,24.05
2022-10-22T21:10:58.639Z,15.40
2022-10-22T21:13:25.936Z,23.33
2022-10-22T21:15:53.165Z,19.65
2022-10-22T21:18:20.454Z,21.00
2022-10-22T21:20:47.644Z,16.95
2022-10-22T21:23:14.957Z,25.45
2022-10-22T21:25:43.972Z,16.80
2022-10-22T21:28:11.331Z,20.13
2022-10-22T21:30:38.526Z,15.68
2022-10-22T21:33:05.785Z,24.73
2022-10-22T21:35:33.434Z,20.42
2022-10-22T21:38:00.654Z,28.05
2022-10-22T21:40:28.077Z,21.88
2022-10-22T21:42:55.240Z,20.25
2022-10-22T21:45:22.677Z,15.63
2022-10-22T21:47:49.923Z,19.77
2022-10-22T21:50:17.119Z,14.30
2022-10-22T21:52:44.329Z,16.92
2022-10-22T21:55:11.501Z,14.93
2022-10-22T21:57:38.834Z,18.98
2022-10-22T22:00:06.134Z,18.33
2022-10-22T22:02:33.458Z,16.58
2022-10-22T22:05:00.627Z,10.10
2022-10-22T22:07:27.940Z,13.27
2022-10-22T22:09:55.182Z,18.13
2022-10-22T22:12:22.385Z,13.07
2022-10-22T22:14:49.637Z,13.27
2022-10-22T22:17:18.566Z,20.45
2022-10-22T22:19:45.815Z,17.17
2022-10-22T22:22:13.140Z,13.35
2022-10-22T22:24:40.381Z,15.88
2022-10-22T22:27:07.709Z,13.75
2022-10-22T22:29:35.001Z,15.30
2022-10-22T22:32:02.301Z,21.30
2022-10-22T22:34:29.530Z,14.70
2022-10-22T22:36:56.825Z,12.52
2022-10-22T22:39:24.069Z,15.93
2022-10-22T22:41:51.332Z,15.38
2022-10-22T22:44:18.595Z,21.20
2022-10-22T22:46:45.815Z,26.40
2022-10-22T22:49:13.037Z,20.08
2022-10-22T22:51:40.359Z,20.35
2022-10-22T22:54:07.609Z,17.85
2022-10-22T22:56:34.851Z,14.85
2022-10-22T22:59:02.117Z,14.73
2022-10-22T23:01:29.440Z,23.15
2022-10-22T23:03:56.741Z,19.25
2022-10-22T23:06:24.069Z,15.88
2022-10-22T23:08:52.087Z,12.43
2022-10-22T23:11:19.598Z,16.60
2022-10-22T23:13:46.859Z,12.93
2022-10-22T23:16:14.306Z,16.90
2022-10-22T23:18:41.520Z,24.25
2022-10-22T23:21:08.769Z,13.70
2022-10-22T23:23:35.978Z,22.33
2022-10-22T23:26:03.222Z,14.15
2022-10-22T23:28:30.486Z,18.77
2022-10-22T23:30:57.712Z,15.82
2022-10-22T23:33:24.957Z,14.27
2022-10-22T23:35:52.323Z,21.25
2022-10-22T23:38:19.508Z,14.48
2022-10-22T23:40:46.966Z,16.23
2022-10-22T23:43:14.128Z,16.92
2022-10-22T23:45:41.402Z,17.90
2022-10-22T23:48:08.657Z,13.43
2022-10-22T23:50:35.918Z,12.63
2022-10-22T23:53:03.082Z,15.07
2022-10-22T23:55:30.305Z,15.13
2022-10-22T23:57:57.587Z,15.13
